Time;durP1;ratioP1;P1;durP2;ratioP2;P2;SDS_P1;SDS_P2;PMS_P1;PMS_P2;Temp;Humidity;BMP_temperature;BMP_pressure;BME280_temperature;BME280_humidity;BME280_pressure;Samples;Min_cycle;Max_cycle;Signal;HPM_P1;HPM_P2
2023/03/15 06:43:39;;;;;;;;;;;;;;;;;;5457167;23;19924;-86
2023/03/15 06:46:04;;;;;;;;;;;;;;;;;;4898644;29;20270;-84
2023/03/15 06:48:30;;;;;;;;;;;;;;;;;;4899318;29;19919;-84
2023/03/15 06:50:55;;;;;;;;;;;;;;;;;;4899469;29;19923;-84
2023/03/15 06:53:21;;;;;;;;;;;;;;;;;;4899369;29;19923;-85
2023/03/15 06:55:46;;;;;;;;;;;;;;;;;;4899160;29;19919;-86
2023/03/15 06:58:12;;;;;;;;;;;;;;;;;;4899468;29;19919;-86
2023/03/15 07:00:37;;;;;;;;;;;;;;;;;;4899470;29;19915;-86
2023/03/15 10:35:50;;;;;;;;;;;;;;;;;;4895960;29;19923;-81
2023/03/15 10:38:16;;;;;;;;;;;;;;;;;;4899789;29;19959;-83
2023/03/15 10:40:41;;;;;;;;;;;;;;;;;;4899347;29;19915;-83
2023/03/15 10:43:13;;;;;;;;;;;;;;;;;;4899388;29;19923;-82
2023/03/15 10:45:38;;;;;;;;;;;;;;;;;;4899523;29;19915;-82
2023/03/15 10:48:04;;;;;;;;;;;;;;;;;;4899570;29;19922;-81
2023/03/15 10:50:30;;;;;;;;;;;;;;;;;;4899681;29;19916;-81
2023/03/15 10:52:57;;;;;;;;;;;;;;;;;;4898488;29;20071;-81
2023/03/15 10:55:31;;;;;;;;;;;;;;;;;;4899402;29;19916;-79
2023/03/15 10:58:00;;;;;;;;;;;;;;;;;;4899851;29;19915;-81
2023/03/15 11:00:30;;;;;;;;;;;;;;;;;;4899501;29;20426;-82
2023/03/15 11:03:15;;;;;;;;;;;;;;;;;;4898821;29;19916;-80
2023/03/15 11:05:42;;;;;;;;;;;;;;;;;;4899192;29;19972;-81
2023/03/15 11:08:15;;;;;;;;;;;;;;;;;;4899198;29;20024;-81
2023/03/15 11:10:43;;;;;;;;;;;;;;;;;;4899247;29;19922;-82
2023/03/15 11:13:28;;;;;;;;;;;;;;;;;;4898930;29;19916;-80
2023/03/15 11:16:12;;;;;;;;;;;;;;;;;;4898723;29;19915;-80
2023/03/15 11:18:54;;;;;;;;;;;;;;;;;;4898970;29;20354;-80
2023/03/15 11:21:20;;;;;;;;;;;;;;;;;;4898860;29;19915;-81
2023/03/15 11:23:47;;;;;;;;;;;;;;;;;;4899220;29;19915;-79
2023/03/15 11:26:16;;;;;;;;;;;;;;;;;;4899203;29;20371;-80
2023/03/15 11:28:44;;;;;;;;;;;;;;;;;;4898883;29;20010;-80
2023/03/15 11:31:10;;;;;;;;;;;;;;;;;;4898880;29;19919;-80
2023/03/15 11:33:51;;;;;;;;;;;;;;;;;;4898866;29;19915;-81
2023/03/15 11:36:18;;;;;;;;;;;;;;;;;;4906988;29;20396;-81
2023/03/15 11:38:44;;;;;;;;;;;;;;;;;;4900423;29;19922;-81
2023/03/15 11:41:21;;;;;;;;;;;;;;;;;;4917808;29;20273;-81
2023/03/15 11:43:49;;;;;;;;;;;;;;;;;;4917654;29;19973;-86
2023/03/15 11:46:21;;;;;;;;;;;;;;;;;;4917683;29;19915;-82
2023/03/15 11:48:49;;;;;;;;;;;;;;;;;;4917716;29;19926;-81
2023/03/15 11:51:15;;;;;;;;;;;;;;;;;;4917754;29;19922;-83
2023/03/15 11:53:42;;;;;;;;;;;;;;;;;;4917467;29;19915;-82
2023/03/15 11:56:22;;;;;;;;;;;;;;;;;;4917709;29;19919;-81
2023/03/15 11:59:00;;;;;;;;;;;;;;;;;;4917866;29;19919;-85
2023/03/15 12:01:26;;;;;;;;;;;;;;;;;;4917997;29;19926;-88
2023/03/15 12:04:11;;;;;;;;;;;;;;;;;;4919847;29;20013;-85
2023/03/15 12:06:37;;;;;;;;;;;;;;;;;;4903920;29;20006;-83
2023/03/15 12:09:22;;;;;;;;;;;;;;;;;;4921468;29;20009;-82
2023/03/15 12:11:48;;;;;;;;;;;;;;;;;;4920978;29;20445;-82
2023/03/15 12:14:40;;;;;;;;;;;;;;;;;;4920940;29;20010;-83
2023/03/15 12:17:23;;;;;;;;;;;;;;;;;;4918515;29;20018;-84
2023/03/15 12:20:08;;;;;;;;;;;;;;;;;;4920955;29;19915;-83
2023/03/15 12:22:34;;;;;;;;;;;;;;;;;;4920881;29;19922;-83
2023/03/15 12:25:07;;;;;;;;;;;;;;;;;;4920832;29;19915;-83
2023/03/15 12:27:34;;;;;;;;;;;;;;;;;;4921888;29;19923;-84
2023/03/15 12:30:00;;;;;;;;;;;;;;;;;;4920966;29;20380;-83
2023/03/15 12:32:26;;;;;;;;;;;;;;;;;;4903407;29;20254;-84
2023/03/15 12:34:53;;;;;;;;;;;;;;;;;;4920622;29;19922;-84
2023/03/15 12:37:41;;;;;;;;;;;;;;;;;;4920609;29;20465;-84
2023/03/15 12:40:15;;;;;;;1.00;1.00;;;;;;;;;;4920366;29;19966;-84
2023/03/15 12:42:41;;;;;;;1.20;1.10;;;;;;;;;;4920142;29;19919;-84
2023/03/15 12:45:15;;;;;;;1.20;1.05;;;;;;;;;;4920268;29;20547;-84
2023/03/15 18:44:44;;;;;;;;;;;;;;;;;;5308134;23;20354;-79
2023/03/15 18:47:09;;;;;;;;;;;;;;;;;;4900969;29;20002;-79
2023/03/15 18:49:35;;;;;;;;;;;;;;;;;;4899640;29;19927;-82
2023/03/15 18:52:00;;;;;;;;;;;;;;;;;;4899640;29;19971;-79
2023/03/15 18:54:25;;;;;;;;;;;;;;;;;;4899739;29;19959;-81
2023/03/15 18:56:51;;;;;;;;;;;;;;;;;;4899694;29;19978;-83
2023/03/15 18:59:16;;;;;;;;;;;;;;;;;;4899291;29;19920;-81
2023/03/15 19:01:42;;;;;;;;;;;;;;;;;;4899364;29;19920;-80
2023/03/15 19:04:07;;;;;;;;;;;;;;;;;;4899192;29;19926;-80
2023/03/15 19:06:33;;;;;;;;;;;;;;;;;;4899339;29;19915;-82
2023/03/15 19:08:58;;;;;;;;;;;;;;;;;;4899364;29;19947;-79
2023/03/15 19:11:25;;;;;;;;;;;;;;;;;;4899323;29;20370;-81
2023/03/15 19:13:51;;;;;;;;;;;;;;;;;;4898304;29;19919;-81
2023/03/15 19:16:17;;;;;;;;;;;;;;;;;;4899260;29;20335;-82
2023/03/15 19:18:43;;;;;;;;;;;;;;;;;;4899333;29;20009;-79
2023/03/15 19:21:08;;;;;;;;;;;;;;;;;;4898945;29;19920;-79
2023/03/15 19:23:34;;;;;;;1.10;0.93;;;;;;;;;;4898564;29;20021;-82
2023/03/15 19:26:00;;;;;;;1.20;1.10;;;;;;;;;;4898651;29;20043;-80
2023/03/15 19:28:26;;;;;;;0.80;0.80;;;;;;;;;;4898481;29;20028;-78
2023/03/15 19:30:51;;;;;;;1.00;1.00;;;;;;;;;;4898507;29;20031;-82
2023/03/15 19:33:16;;;;;;;1.20;1.10;;;;;;;;;;4898557;29;20376;-81
2023/03/15 19:35:42;;;;;;;0.90;0.77;;;;;;;;;;4898504;29;20071;-82
2023/03/15 19:38:08;;;;;;;0.70;0.70;;;;;;;;;;4898606;29;20032;-83
2023/03/15 19:40:33;;;;;;;0.80;0.77;;;;;;;;;;4898224;29;20029;-82
2023/03/15 19:42:59;;;;;;;0.98;0.82;;;;;;;;;;4898176;29;20043;-83
2023/03/15 19:45:24;;;;;;;0.80;0.80;;;;;;;;;;4901358;29;20056;-80
2023/03/15 19:47:50;;;;;;;0.88;0.88;;;;;;;;;;4917282;29;20476;-79
2023/03/15 19:50:16;;;;;;;;;;;;;;;;;;4917833;29;19923;-79
2023/03/15 19:52:47;;;;;;;;;;;;;;;;;;4917838;29;19926;-82
2023/03/15 19:55:16;;;;;;;;;;;;;;;;;;4917641;29;20385;-79
2023/03/15 19:57:42;;;;;;;;;;;;;;;;;;4917502;29;19950;-79
2023/03/15 20:00:13;;;;;;;;;;;;;;;;;;4917747;29;19922;-80
2023/03/15 20:02:39;;;;;;;;;;;;;;;;;;4917670;29;19919;-79
2023/03/15 20:05:07;;;;;;;;;;;;;;;;;;4917809;29;19914;-81
2023/03/15 20:07:32;;;;;;;;;;;;;;;;;;4917512;29;19911;-79
2023/03/15 20:09:57;;;;;;;;;;;;;;;;;;4917411;29;19915;-82
2023/03/15 20:12:23;;;;;;;;;;;;;;;;;;4917580;29;19974;-81
2023/03/15 20:14:48;;;;;;;;;;;;;;;;;;4917377;29;19954;-79
2023/03/15 20:17:14;;;;;;;;;;;;;;;;;;4917429;29;19958;-81
2023/03/15 20:19:39;;;;;;;;;;;;;;;;;;4900691;29;19911;-79
2023/03/15 20:22:04;;;;;;;;;;;;;;;;;;4917064;29;19915;-81
2023/03/15 20:24:30;;;;;;;;;;;;;;;;;;4918951;29;20005;-79
2023/03/15 20:26:55;;;;;;;;;;;;;;;;;;4920868;29;19911;-81
2023/03/15 20:29:21;;;;;;;;;;;;;;;;;;4920978;29;19915;-81
2023/03/15 20:31:46;;;;;;;;;;;;;;;;;;4920961;29;19911;-81
2023/03/15 20:34:12;;;;;;;;;;;;;;;;;;4921175;29;19915;-80
2023/03/15 20:36:37;;;;;;;;;;;;;;;;;;4920878;29;19919;-79
2023/03/15 20:39:04;;;;;;;;;;;;;;;;;;4920987;29;19911;-80
2023/03/15 20:41:29;;;;;;;;;;;;;;;;;;4920744;29;19915;-81
2023/03/15 20:43:55;;;;;;;;;;;;;;;;;;4920645;29;20365;-79
2023/03/15 20:46:21;;;;;;;;;;;;;;;;;;4920480;29;19926;-79
2023/03/15 20:48:47;;;;;;;;;;;;;;;;;;4920856;29;19915;-79
2023/03/15 20:51:12;;;;;;;;;;;;;;;;;;4920642;29;19915;-81
2023/03/15 20:53:38;;;;;;;;;;;;;;;;;;4920481;29;19915;-78
2023/03/15 20:56:03;;;;;;;;;;;;;;;;;;4920652;29;19915;-78
2023/03/15 20:58:29;;;;;;;;;;;;;;;;;;4920820;29;19911;-81
2023/03/15 21:01:05;;;;;;;;;;;;;;;;;;4920640;29;19915;-82
2023/03/15 21:03:32;;;;;;;;;;;;;;;;;;4920416;29;20362;-82
2023/03/15 21:05:58;;;;;;;;;;;;;;;;;;4920332;29;19915;-79
2023/03/15 21:08:23;;;;;;;;;;;;;;;;;;4920492;29;19915;-79
2023/03/15 21:10:48;;;;;;;;;;;;;;;;;;4920220;29;19915;-81
2023/03/15 21:13:15;;;;;;;;;;;;;;;;;;4920338;29;19915;-80
2023/03/15 21:15:44;;;;;;;;;;;;;;;;;;4920190;29;20422;-78
2023/03/15 21:18:10;;;;;;;;;;;;;;;;;;4920360;29;19915;-80
2023/03/15 21:20:35;;;;;;;;;;;;;;;;;;4920189;29;20294;-81
2023/03/15 21:23:01;;;;;;;;;;;;;;;;;;4919782;29;20309;-81
2023/03/15 21:25:27;;;;;;;;;;;;;;;;;;4895326;29;19919;-78
2023/03/15 21:27:55;;;;;;;;;;;;;;;;;;4911061;29;19923;-78
2023/03/15 21:30:21;;;;;;;;;;;;;;;;;;4902700;29;19919;-77
2023/03/15 21:32:47;;;;;;;;;;;;;;;;;;4919905;29;19922;-76
2023/03/15 21:35:12;;;;;;;;;;;;;;;;;;4902517;29;19919;-78
2023/03/15 21:37:39;;;;;;;;;;;;;;;;;;4900148;29;19919;-78
2023/03/15 21:40:05;;;;;;;;;;;;;;;;;;4900777;29;19927;-79
2023/03/15 21:42:32;;;;;;;;;;;;;;;;;;4907738;29;19922;-80
2023/03/15 21:44:57;;;;;;;;;;;;;;;;;;4907774;29;19953;-80
2023/03/15 21:47:23;;;;;;;;;;;;;;;;;;4900448;29;19919;-80
2023/03/15 21:49:49;;;;;;;;;;;;;;;;;;4900550;29;19927;-79
2023/03/15 21:52:15;;;;;;;;;;;;;;;;;;4883439;29;20286;-79
2023/03/15 21:54:41;;;;;;;;;;;;;;;;;;4900355;29;19919;-80
2023/03/15 21:57:06;;;;;;;;;;;;;;;;;;4900414;29;19916;-78
2023/03/15 21:59:31;;;;;;;;;;;;;;;;;;4906867;29;20044;-78
2023/03/15 22:01:57;;;;;;;;;;;;;;;;;;4913637;29;19921;-80
2023/03/15 22:04:25;;;;;;;;;;;;;;;;;;4885497;29;19916;-76
2023/03/15 22:06:51;;;;;;;;;;;;;;;;;;4918977;29;19915;-80
2023/03/15 22:09:17;;;;;;;;;;;;;;;;;;4912129;29;19915;-78
2023/03/15 22:11:42;;;;;;;;;;;;;;;;;;4900015;29;19927;-80
2023/03/15 22:14:08;;;;;;;;;;;;;;;;;;4900121;29;20394;-78
2023/03/15 22:16:33;;;;;;;;;;;;;;;;;;4900150;29;19994;-78
2023/03/15 22:18:58;;;;;;;;;;;;;;;;;;4916120;29;20010;-79
2023/03/15 22:21:24;;;;;;;;;;;;;;;;;;4918631;29;20354;-79
2023/03/15 22:23:50;;;;;;;;;;;;;;;;;;4918949;29;19915;-79
2023/03/15 22:26:15;;;;;;;;;;;;;;;;;;4918757;29;19915;-80
2023/03/15 22:28:40;;;;;;;;;;;;;;;;;;4901693;29;19926;-80
2023/03/15 22:31:08;;;;;;;;;;;;;;;;;;4918642;29;19915;-80
2023/03/15 22:33:33;;;;;;;;;;;;;;;;;;4912582;29;20385;-80
2023/03/15 22:35:59;;;;;;;;;;;;;;;;;;4914348;29;19958;-79
2023/03/15 22:38:25;;;;;;;;;;;;;;;;;;4918510;29;19970;-80
2023/03/15 22:40:58;;;;;;;;;;;;;;;;;;4918570;29;20032;-80
